Time;durP1;ratioP1;P1;durP2;ratioP2;P2;SDS_P1;SDS_P2;PMS_P1;PMS_P2;Temp;Humidity;BMP_temperature;BMP_pressure;BME280_temperature;BME280_humidity;BME280_pressure;Samples;Min_cycle;Max_cycle;Signal;HPM_P1;HPM_P2
2022/07/13 00:00:18;;;;;;;3.00;1.70;;;;;;;14.58;100.00;99167.73;105202;1271;61294;-71
2022/07/13 00:03:02;;;;;;;5.30;1.80;;;;;;;14.55;100.00;99170.83;105227;1271;75429;-73
2022/07/13 00:05:28;;;;;;;3.70;1.70;;;;;;;14.52;100.00;99170.67;105140;1272;61392;-73
2022/07/13 00:07:54;;;;;;;4.30;1.80;;;;;;;14.49;100.00;99166.58;105159;1271;61354;-71
2022/07/13 00:10:20;;;;;;;2.30;1.70;;;;;;;14.47;100.00;99163.94;105193;1271;61314;-71
2022/07/13 00:12:46;;;;;;;1.60;1.30;;;;;;;14.44;100.00;99162.91;105169;1271;62254;-71
2022/07/13 00:15:12;;;;;;;3.80;1.60;;;;;;;14.42;100.00;99163.06;104882;1274;61583;-72
2022/07/13 00:17:38;;;;;;;2.30;1.80;;;;;;;14.41;100.00;99162.27;104883;1271;61408;-72
2022/07/13 00:20:05;;;;;;;6.00;1.60;;;;;;;14.37;100.00;99163.63;105164;1271;61307;-73
2022/07/13 00:22:31;;;;;;;4.60;1.80;;;;;;;14.35;100.00;99165.77;104938;1274;61345;-73
2022/07/13 00:24:57;;;;;;;2.40;1.50;;;;;;;14.32;100.00;99169.82;105215;1271;61345;-73
2022/07/13 00:27:23;;;;;;;3.30;1.90;;;;;;;14.30;100.00;99170.67;105147;1271;69507;-71
2022/07/13 00:29:49;;;;;;;1.80;1.40;;;;;;;14.26;100.00;99171.53;105155;1271;62042;-71
2022/07/13 00:32:15;;;;;;;4.10;1.80;;;;;;;14.22;100.00;99171.84;105210;1272;61355;-73
2022/07/13 00:34:41;;;;;;;2.10;1.90;;;;;;;14.18;100.00;99170.14;104897;1271;61454;-71
2022/07/13 00:37:07;;;;;;;2.30;1.90;;;;;;;14.15;100.00;99169.84;104880;1273;61330;-72
2022/07/13 00:39:33;;;;;;;3.60;1.80;;;;;;;14.12;100.00;99168.29;105170;1271;62194;-71
2022/07/13 00:41:59;;;;;;;2.70;1.40;;;;;;;14.09;100.00;99166.42;104906;1274;61274;-72
2022/07/13 00:44:25;;;;;;;3.40;1.70;;;;;;;14.05;100.00;99167.29;105216;1271;61390;-72
2022/07/13 00:46:55;;;;;;;5.80;2.00;;;;;;;14.02;100.00;99166.78;105146;1271;76386;-72
2022/07/13 00:49:22;;;;;;;3.10;1.90;;;;;;;13.98;100.00;99171.75;105225;1271;68673;-71
2022/07/13 00:51:50;;;;;;;3.60;1.50;;;;;;;13.94;100.00;99172.95;105186;1271;73309;-72
2022/07/13 00:54:19;;;;;;;2.20;1.30;;;;;;;13.91;100.00;99171.42;105150;1271;61324;-71
2022/07/13 00:56:45;;;;;;;2.30;1.70;;;;;;;13.87;100.00;99171.52;105370;1271;61344;-72
2022/07/13 00:59:11;;;;;;;6.00;2.80;;;;;;;13.82;100.00;99173.45;105393;1269;61405;-72
2022/07/13 01:01:37;;;;;;;3.90;1.60;;;;;;;13.79;100.00;99174.45;105526;1271;61810;-72
2022/07/13 01:04:03;;;;;;;3.60;1.60;;;;;;;13.75;100.00;99171.36;105088;1270;61253;-72
2022/07/13 01:06:30;;;;;;;3.60;2.00;;;;;;;13.72;100.00;99168.56;105141;1271;61380;-72
2022/07/13 01:08:56;;;;;;;3.80;1.60;;;;;;;13.71;100.00;99168.48;105217;1271;61289;-72
2022/07/13 01:11:22;;;;;;;3.10;1.50;;;;;;;13.69;100.00;99166.10;105181;1271;61336;-72
2022/07/13 01:13:48;;;;;;;2.80;1.70;;;;;;;13.68;100.00;99168.18;105185;1271;61300;-72
2022/07/13 01:16:14;;;;;;;3.50;1.40;;;;;;;13.65;100.00;99165.35;104930;1271;61576;-70
2022/07/13 01:18:41;;;;;;;4.80;1.60;;;;;;;13.60;100.00;99166.44;105171;1271;61418;-71
2022/07/13 01:21:08;;;;;;;2.40;1.70;;;;;;;13.58;100.00;99166.59;105160;1271;61291;-72
2022/07/13 01:23:35;;;;;;;3.90;1.60;;;;;;;13.57;100.00;99171.34;105137;1271;61329;-72
2022/07/13 01:26:02;;;;;;;3.50;1.80;;;;;;;13.56;100.00;99171.20;105177;1271;61349;-72
2022/07/13 01:28:28;;;;;;;5.10;2.00;;;;;;;13.55;100.00;99171.84;105174;1271;61346;-72
2022/07/13 01:30:54;;;;;;;4.00;2.20;;;;;;;13.53;100.00;99167.52;105163;1271;61303;-71
2022/07/13 01:33:20;;;;;;;3.70;2.40;;;;;;;13.54;100.00;99166.59;105174;1271;61361;-72
2022/07/13 01:35:46;;;;;;;3.00;2.30;;;;;;;13.52;100.00;99169.04;105163;1271;61298;-72
2022/07/13 01:38:12;;;;;;;3.10;2.40;;;;;;;13.49;100.00;99166.43;105175;1271;61396;-72
2022/07/13 01:40:41;;;;;;;4.50;2.50;;;;;;;13.47;100.00;99165.09;105204;1271;61289;-72
2022/07/13 01:43:07;;;;;;;7.30;4.10;;;;;;;13.46;100.00;99160.40;105198;1271;61406;-71
2022/07/13 01:45:33;;;;;;;5.20;3.50;;;;;;;13.45;100.00;99161.52;105170;1271;61397;-71
2022/07/13 01:48:00;;;;;;;5.50;3.60;;;;;;;13.43;100.00;99160.77;105153;1271;61337;-73
2022/07/13 01:50:27;;;;;;;6.70;3.60;;;;;;;13.43;100.00;99161.70;105118;1270;61337;-71
2022/07/13 01:52:53;;;;;;;5.40;3.30;;;;;;;13.43;100.00;99161.33;105177;1271;61300;-72
2022/07/13 01:55:20;;;;;;;3.50;2.80;;;;;;;13.42;100.00;99160.20;105190;1270;61372;-72
2022/07/13 01:57:46;;;;;;;3.90;3.20;;;;;;;13.40;100.00;99167.45;105187;1271;61329;-73
2022/07/13 02:00:29;;;;;;;4.10;2.70;;;;;;;13.38;100.00;99164.05;105139;1271;61383;-72
2022/07/13 02:02:55;;;;;;;4.60;3.60;;;;;;;13.33;100.00;99166.73;105224;1271;74616;-72
2022/07/13 02:05:25;;;;;;;5.60;3.50;;;;;;;13.29;100.00;99169.84;104944;1272;61212;-72
2022/07/13 02:07:51;;;;;;;3.80;3.00;;;;;;;13.26;100.00;99170.80;105181;1271;61358;-71
2022/07/13 02:10:17;;;;;;;4.90;3.10;;;;;;;13.22;100.00;99167.70;105181;1270;61411;-72
2022/07/13 02:12:43;;;;;;;4.50;2.80;;;;;;;13.18;100.00;99167.11;105151;1271;61301;-72
2022/07/13 02:15:10;;;;;;;3.60;2.30;;;;;;;13.14;100.00;99167.92;105109;1271;61363;-72
2022/07/13 02:17:37;;;;;;;4.50;2.20;;;;;;;13.11;100.00;99170.88;104933;1271;61474;-73
2022/07/13 02:20:03;;;;;;;5.00;2.80;;;;;;;13.07;100.00;99168.77;105108;1271;61399;-72
2022/07/13 02:22:46;;;;;;;5.30;2.30;;;;;;;13.05;100.00;99163.77;105141;1271;61378;-72
2022/07/13 02:25:13;;;;;;;3.10;2.00;;;;;;;13.02;100.00;99164.23;105233;1270;70647;-73
2022/07/13 02:27:43;;;;;;;3.50;2.10;;;;;;;12.97;100.00;99161.19;105246;1271;71455;-72
2022/07/13 02:30:11;;;;;;;5.70;2.40;;;;;;;12.92;100.00;99158.02;105194;1271;61702;-72
2022/07/13 02:32:38;;;;;;;4.00;2.00;;;;;;;12.87;100.00;99160.35;105166;1271;61263;-71
2022/07/13 02:35:05;;;;;;;2.90;1.80;;;;;;;12.82;100.00;99159.99;105344;1271;75311;-72
2022/07/13 02:37:31;;;;;;;3.30;2.00;;;;;;;12.78;100.00;99158.52;105103;1271;69327;-72
2022/07/13 02:39:57;;;;;;;5.20;2.00;;;;;;;12.75;100.00;99162.80;105090;1271;61332;-71
2022/07/13 02:42:24;;;;;;;2.20;2.00;;;;;;;12.73;100.00;99161.54;105071;1271;61338;-72
2022/07/13 02:44:51;;;;;;;4.10;2.00;;;;;;;12.70;100.00;99160.65;105204;1271;61360;-72
2022/07/13 02:47:17;;;;;;;3.10;2.00;;;;;;;12.68;100.00;99157.98;105204;1271;61450;-72
2022/07/13 02:49:44;;;;;;;3.50;2.10;;;;;;;12.65;100.00;99159.23;105234;1270;61291;-72
2022/07/13 02:52:10;;;;;;;4.50;2.10;;;;;;;12.62;100.00;99158.05;105241;1271;61287;-72
2022/07/13 02:54:36;;;;;;;3.80;1.90;;;;;;;12.61;100.00;99161.86;105211;1271;61360;-72
2022/07/13 02:57:02;;;;;;;3.00;2.00;;;;;;;12.61;100.00;99164.20;105156;1269;61505;-72
2022/07/13 02:59:35;;;;;;;3.60;2.60;;;;;;;12.61;100.00;99163.13;105158;1271;61751;-72
2022/07/13 03:02:01;;;;;;;5.40;2.30;;;;;;;12.61;100.00;99167.59;105272;1271;68462;-72
2022/07/13 03:04:27;;;;;;;3.90;1.90;;;;;;;12.61;100.00;99167.05;105149;1271;61361;-74
2022/07/13 03:06:53;;;;;;;3.50;1.90;;;;;;;12.61;100.00;99169.88;105195;1271;61331;-73
2022/07/13 03:09:19;;;;;;;2.70;1.80;;;;;;;12.64;100.00;99166.13;105182;1271;61385;-75
2022/07/13 03:11:45;;;;;;;3.80;2.50;;;;;;;12.66;100.00;99168.42;105174;1271;61262;-72
2022/07/13 03:14:11;;;;;;;2.60;1.90;;;;;;;12.68;100.00;99166.88;105178;1271;61326;-72
2022/07/13 03:16:37;;;;;;;3.30;2.00;;;;;;;12.71;100.00;99165.61;105154;1271;61394;-73
2022/07/13 03:19:03;;;;;;;5.80;2.00;;;;;;;12.74;100.00;99168.04;105188;1271;61396;-72
2022/07/13 03:21:29;;;;;;;2.80;1.80;;;;;;;12.77;100.00;99168.72;105178;1271;76169;-72
2022/07/13 03:23:56;;;;;;;2.40;1.80;;;;;;;12.81;100.00;99164.48;105139;1271;61384;-72
2022/07/13 03:26:23;;;;;;;4.70;2.10;;;;;;;12.85;100.00;99163.46;105173;1271;61255;-72
2022/07/13 03:28:49;;;;;;;3.40;1.60;;;;;;;13.09;100.00;99164.16;105260;1271;61374;-72
2022/07/13 03:31:15;;;;;;;2.70;1.90;;;;;;;14.21;100.00;99159.34;105200;1271;61464;-72
2022/07/13 03:33:41;;;;;;;5.20;2.30;;;;;;;15.59;100.00;99150.80;105180;1271;61281;-72
2022/07/13 03:36:08;;;;;;;3.80;1.80;;;;;;;16.71;100.00;99147.05;105145;1271;61327;-72
2022/07/13 03:38:35;;;;;;;4.00;1.60;;;;;;;17.67;100.00;99141.30;105159;1269;61236;-72
2022/07/13 03:41:01;;;;;;;3.60;1.60;;;;;;;18.42;100.00;99142.81;105109;1271;61399;-72
2022/07/13 03:43:27;;;;;;;1.70;1.60;;;;;;;19.21;100.00;99138.08;105156;1271;61413;-73
2022/07/13 03:45:53;;;;;;;5.20;1.80;;;;;;;19.96;100.00;99135.20;105206;1271;61280;-72
2022/07/13 03:48:19;;;;;;;3.50;1.80;;;;;;;20.60;100.00;99132.84;105196;1270;61397;-72
2022/07/13 03:50:46;;;;;;;3.20;1.50;;;;;;;21.14;100.00;99131.68;105126;1271;61308;-72
2022/07/13 03:53:14;;;;;;;4.80;2.00;;;;;;;21.68;100.00;99137.91;105211;1271;61483;-71
2022/07/13 03:55:41;;;;;;;4.20;2.10;;;;;;;22.21;100.00;99140.46;105257;1271;61323;-71
2022/07/13 03:58:10;;;;;;;2.00;1.70;;;;;;;22.64;100.00;99139.57;105061;1271;77371;-72
2022/07/13 04:00:37;;;;;;;1.70;1.50;;;;;;;23.00;100.00;99133.05;105187;1271;70574;-72
2022/07/13 04:03:04;;;;;;;2.30;1.90;;;;;;;23.35;100.00;99132.02;105142;1271;74496;-72
2022/07/13 04:05:30;;;;;;;2.50;1.90;;;;;;;23.65;100.00;99132.48;105153;1271;61377;-72
2022/07/13 04:07:57;;;;;;;3.40;1.80;;;;;;;24.01;100.00;99127.64;105185;1271;61374;-72
2022/07/13 04:10:23;;;;;;;2.50;1.60;;;;;;;24.37;100.00;99129.61;105033;1271;61310;-73
2022/07/13 04:12:50;;;;;;;3.60;1.90;;;;;;;24.57;99.84;99132.92;105175;1271;61397;-72
2022/07/13 04:15:16;;;;;;;2.60;1.90;;;;;;;24.69;98.69;99137.20;105148;1270;61370;-73
2022/07/13 04:17:43;;;;;;;3.60;1.90;;;;;;;24.75;98.48;99140.45;105177;1271;61399;-73
2022/07/13 04:20:11;;;;;;;4.10;1.80;;;;;;;24.95;97.56;99138.27;105282;1271;61186;-73
2022/07/13 04:22:37;;;;;;;2.60;1.70;;;;;;;25.08;96.97;99135.64;105177;1271;76207;-72
2022/07/13 04:25:04;;;;;;;3.20;2.30;;;;;;;25.31;96.82;99143.30;105173;1271;61227;-72
2022/07/13 04:27:31;;;;;;;2.20;1.50;;;;;;;25.30;96.19;99139.18;105183;1271;73541;-72
2022/07/13 04:29:57;;;;;;;2.40;1.70;;;;;;;25.35;91.92;99141.45;105207;1271;61272;-73
2022/07/13 04:32:23;;;;;;;3.20;1.90;;;;;;;25.46;90.63;99143.36;105198;1270;61275;-73
2022/07/13 04:34:49;;;;;;;3.10;1.90;;;;;;;25.60;88.88;99150.41;104914;1271;61361;-73
2022/07/13 04:37:16;;;;;;;3.00;1.60;;;;;;;25.64;86.69;99153.14;105160;1271;61249;-73
2022/07/13 04:39:42;;;;;;;2.70;1.80;;;;;;;25.37;80.46;99149.61;104856;1271;61412;-72
2022/07/13 04:49:43;;;;;;;2.00;1.40;;;;;;;25.99;76.12;99155.02;105191;1271;73701;-72
2022/07/13 04:52:09;;;;;;;2.60;1.70;;;;;;;25.97;73.36;99161.45;105203;1271;61255;-73
2022/07/13 04:54:35;;;;;;;3.80;1.80;;;;;;;26.10;73.33;99160.49;105154;1271;61368;-74
2022/07/13 04:57:01;;;;;;;2.90;1.70;;;;;;;26.32;73.17;99163.22;105167;1270;61403;-73
2022/07/13 04:59:27;;;;;;;3.70;1.70;;;;;;;26.34;70.33;99165.20;105190;1271;61196;-72
2022/07/13 05:01:53;;;;;;;2.90;1.60;;;;;;;26.22;68.91;99169.08;105177;1271;61288;-73
2022/07/13 05:04:19;;;;;;;2.50;1.90;;;;;;;26.27;67.16;99160.95;105215;1271;61392;-73
2022/07/13 05:06:45;;;;;;;1.90;1.40;;;;;;;26.40;66.74;99163.69;105137;1271;61236;-75
2022/07/13 05:09:11;;;;;;;1.90;1.60;;;;;;;26.37;65.64;99162.61;105274;1271;61486;-73
2022/07/13 05:11:39;;;;;;;3.40;1.80;;;;;;;26.35;64.74;99161.80;105184;1271;75325;-72
2022/07/13 05:14:05;;;;;;;3.80;1.80;;;;;;;26.30;62.95;99156.44;105186;1271;69250;-73
2022/07/13 05:16:31;;;;;;;2.70;2.00;;;;;;;26.32;62.45;99154.84;105189;1271;61380;-72
2022/07/13 05:18:57;;;;;;;5.10;1.90;;;;;;;26.42;61.79;99156.38;105174;1271;61329;-73
2022/07/13 05:21:23;;;;;;;2.50;1.90;;;;;;;26.63;60.99;99157.75;105187;1271;61190;-73
2022/07/13 05:23:49;;;;;;;3.40;1.90;;;;;;;26.68;58.68;99160.04;105199;1271;61151;-72
2022/07/13 05:26:15;;;;;;;3.80;1.60;;;;;;;26.71;58.98;99151.77;104949;1271;61514;-72
2022/07/13 05:28:42;;;;;;;3.30;1.80;;;;;;;26.82;58.74;99152.40;105193;1271;61352;-73
2022/07/13 05:31:08;;;;;;;2.10;1.70;;;;;;;26.82;56.47;99147.99;105195;1271;61284;-73
2022/07/13 05:33:34;;;;;;;1.70;1.60;;;;;;;26.73;54.86;99147.64;105227;1269;61265;-74
2022/07/13 05:36:04;;;;;;;2.90;1.70;;;;;;;26.69;54.69;99149.66;104958;1271;61373;-74
2022/07/13 05:38:30;;;;;;;1.90;1.70;;;;;;;26.61;54.57;99149.23;104906;1271;74368;-74
2022/07/13 05:40:56;;;;;;;1.90;1.60;;;;;;;26.60;54.46;99148.86;105183;1270;61336;-72
2022/07/13 05:43:22;;;;;;;1.50;1.40;;;;;;;26.63;53.58;99149.79;105237;1271;61161;-75
2022/07/13 05:45:48;;;;;;;2.40;1.60;;;;;;;26.34;53.11;99154.39;105260;1271;61351;-73
2022/07/13 05:48:14;;;;;;;1.80;1.50;;;;;;;26.19;54.02;99156.60;105219;1271;61364;-74
2022/07/13 05:50:40;;;;;;;3.20;1.60;;;;;;;26.24;54.22;99157.36;105182;1271;61272;-74
2022/07/13 05:53:06;;;;;;;3.20;1.40;;;;;;;26.23;54.47;99157.55;104987;1271;61426;-74
2022/07/13 05:55:32;;;;;;;1.90;1.80;;;;;;;26.46;55.34;99153.98;105390;1271;61288;-74
2022/07/13 05:57:58;;;;;;;3.30;1.70;;;;;;;26.64;54.68;99153.25;105622;1271;61384;-73
2022/07/13 06:00:24;;;;;;;4.30;1.50;;;;;;;26.68;54.21;99148.52;105289;1271;73364;-73
2022/07/13 06:02:50;;;;;;;1.70;1.30;;;;;;;26.80;54.08;99149.57;105206;1271;61360;-75
2022/07/13 06:05:16;;;;;;;2.60;1.40;;;;;;;26.85;53.37;99149.05;105240;1271;61346;-74
2022/07/13 06:07:42;;;;;;;2.20;1.50;;;;;;;26.70;52.60;99153.23;105235;1271;61817;-74
2022/07/13 06:10:09;;;;;;;4.20;1.40;;;;;;;26.33;52.60;99149.69;104889;1271;61325;-72
2022/07/13 06:12:35;;;;;;;2.70;1.50;;;;;;;26.03;53.21;99147.58;105172;1271;61392;-73
2022/07/13 06:15:01;;;;;;;2.80;2.10;;;;;;;25.95;54.16;99152.91;105191;1271;61302;-73
2022/07/13 06:17:27;;;;;;;3.70;1.80;;;;;;;26.12;54.93;99148.96;104918;1271;61381;-74
2022/07/13 06:19:53;;;;;;;1.30;1.20;;;;;;;26.32;54.87;99145.98;105214;1269;61289;-74
2022/07/13 06:22:19;;;;;;;3.80;2.00;;;;;;;26.31;54.38;99144.32;105215;1271;61464;-74
2022/07/13 06:24:45;;;;;;;1.30;1.20;;;;;;;26.32;54.39;99144.13;105009;1269;61398;-72
2022/07/13 06:27:11;;;;;;;3.30;1.40;;;;;;;26.37;54.39;99149.70;105198;1271;61157;-73
2022/07/13 06:29:38;;;;;;;1.60;1.40;;;;;;;26.36;55.17;99149.06;105279;1271;61291;-73
2022/07/13 06:32:05;;;;;;;3.10;1.20;;;;;;;26.29;54.33;99148.48;105205;1270;61360;-73
2022/07/13 06:34:30;;;;;;;2.80;1.40;;;;;;;26.21;54.60;99147.77;105226;1271;61871;-72
2022/07/13 06:36:57;;;;;;;2.10;1.40;;;;;;;25.97;54.45;99154.85;105256;1271;61369;-75
2022/07/13 06:39:23;;;;;;;3.30;1.20;;;;;;;25.84;55.48;99156.71;105248;1271;61353;-72
2022/07/13 06:41:48;;;;;;;1.50;1.20;;;;;;;25.78;54.93;99155.94;104982;1272;61471;-73
2022/07/13 06:44:15;;;;;;;2.60;1.00;;;;;;;25.72;56.01;99149.02;105236;1271;61288;-74
2022/07/13 06:46:41;;;;;;;5.40;1.10;;;;;;;25.79;56.82;99151.86;105304;1269;61302;-72
2022/07/13 06:49:07;;;;;;;2.60;1.20;;;;;;;25.92;56.92;99145.91;105212;1271;61282;-72
2022/07/13 06:51:33;;;;;;;1.50;1.40;;;;;;;25.86;56.75;99151.70;105303;1271;61300;-72
2022/07/13 06:53:59;;;;;;;2.90;1.30;;;;;;;25.85;56.14;99153.28;105252;1271;70723;-73
2022/07/13 06:56:25;;;;;;;2.20;1.40;;;;;;;25.73;56.00;99144.46;105223;1271;61370;-72
2022/07/13 06:58:52;;;;;;;1.80;1.20;;;;;;;25.75;56.31;99147.13;105238;1271;61356;-72
2022/07/13 07:01:19;;;;;;;1.60;1.30;;;;;;;25.81;56.53;99147.81;105256;1271;61377;-72
2022/07/13 07:03:44;;;;;;;2.60;1.20;;;;;;;25.73;55.70;99144.80;105210;1271;61322;-72
2022/07/13 07:06:11;;;;;;;1.40;1.10;;;;;;;25.62;56.12;99154.20;105211;1271;61333;-72
2022/07/13 07:08:37;;;;;;;3.70;1.20;;;;;;;25.63;56.13;99148.95;105208;1271;61383;-72
2022/07/13 07:11:03;;;;;;;1.20;1.00;;;;;;;25.56;56.39;99153.95;105199;1271;61351;-75
2022/07/13 07:13:29;;;;;;;1.10;0.90;;;;;;;25.69;56.85;99149.52;105262;1271;61451;-74
2022/07/13 07:15:55;;;;;;;2.80;1.10;;;;;;;25.72;56.17;99149.65;105215;1270;61345;-73
2022/07/13 07:18:24;;;;;;;2.50;1.00;;;;;;;25.71;56.25;99147.63;105216;1270;61333;-73
2022/07/13 07:20:50;;;;;;;;;;;;;;;25.79;57.07;99146.02;105217;1271;61272;-73
2022/07/13 07:23:17;;;;;;;2.00;1.00;;;;;;;25.84;56.34;99153.12;105201;1271;61364;-72
2022/07/13 07:25:43;;;;;;;1.20;0.90;;;;;;;25.65;54.98;99154.46;105197;1268;61306;-73
2022/07/13 07:28:10;;;;;;;2.20;1.30;;;;;;;25.36;55.97;99154.10;105195;1271;61307;-73
2022/07/13 07:30:36;;;;;;;1.80;1.10;;;;;;;25.24;56.00;99156.11;105223;1269;61326;-71
2022/07/13 07:33:03;;;;;;;2.80;0.90;;;;;;;25.02;56.51;99154.11;105239;1270;61559;-74
2022/07/13 07:35:29;;;;;;;0.90;0.90;;;;;;;24.66;57.47;99164.65;105240;1268;61324;-73
2022/07/13 07:37:56;;;;;;;1.90;1.00;;;;;;;24.45;58.76;99167.75;105246;1271;61282;-73
2022/07/13 07:40:22;;;;;;;2.80;0.90;;;;;;;24.21;58.16;99161.92;105202;1268;61467;-73
2022/07/13 07:42:48;;;;;;;2.60;1.20;;;;;;;23.97;59.10;99160.52;105232;1269;61304;-73
2022/07/13 07:45:15;;;;;;;3.10;1.20;;;;;;;23.93;60.06;99154.80;105205;1271;61265;-72
2022/07/13 07:47:40;;;;;;;2.50;1.00;;;;;;;23.92;60.70;99158.95;105215;1269;61268;-73
2022/07/13 07:50:09;;;;;;;2.50;1.00;;;;;;;23.86;60.44;99153.63;105237;1269;61358;-73
2022/07/13 07:52:35;;;;;;;1.10;1.00;;;;;;;23.83;61.25;99157.02;105206;1271;61437;-72
2022/07/13 07:55:01;;;;;;;2.10;1.10;;;;;;;23.82;61.04;99149.68;105168;1271;61345;-72
2022/07/13 07:57:27;;;;;;;1.60;1.10;;;;;;;23.70;61.01;99149.36;105177;1271;61384;-73
2022/07/13 07:59:53;;;;;;;2.20;1.10;;;;;;;23.68;61.86;99152.97;105191;1269;61256;-73
2022/07/13 08:02:19;;;;;;;2.50;1.00;;;;;;;23.72;61.06;99155.60;105222;1270;61390;-74
2022/07/13 08:04:45;;;;;;;2.10;1.00;;;;;;;23.78;61.41;99151.31;105225;1271;61343;-73
2022/07/13 08:07:11;;;;;;;1.00;1.00;;;;;;;23.92;62.33;99154.66;105231;1270;61247;-72
2022/07/13 08:09:37;;;;;;;2.30;1.10;;;;;;;23.96;60.66;99153.88;105220;1269;61306;-73
2022/07/13 08:12:04;;;;;;;3.90;1.10;;;;;;;23.87;60.52;99154.94;105271;1270;61196;-73
2022/07/13 08:14:31;;;;;;;1.30;1.00;;;;;;;23.85;60.96;99150.64;105256;1271;74714;-70
2022/07/13 08:16:58;;;;;;;1.70;1.00;;;;;;;24.00;61.16;99145.60;105271;1271;69655;-73
2022/07/13 08:19:24;;;;;;;0.80;0.80;;;;;;;24.06;59.19;99150.02;105230;1271;74329;-73
2022/07/13 08:21:51;;;;;;;1.10;0.90;;;;;;;23.93;59.65;99147.75;105222;1269;61259;-72
2022/07/13 08:24:16;;;;;;;1.70;0.80;;;;;;;24.00;61.01;99140.70;104956;1271;61199;-71
2022/07/13 08:26:42;;;;;;;2.00;0.90;;;;;;;24.15;61.38;99142.82;105212;1271;61388;-74
2022/07/13 08:29:08;;;;;;;1.30;1.00;;;;;;;24.22;60.32;99141.49;105203;1271;61329;-71
2022/07/13 08:31:34;;;;;;;0.90;0.60;;;;;;;24.09;59.09;99138.97;105010;1271;61118;-74
2022/07/13 08:39:29;;;;;;;1.70;0.70;;;;;;;24.17;58.96;99141.91;105221;1271;76305;-73
2022/07/13 08:42:00;;;;;;;1.80;1.10;;;;;;;24.29;59.58;99143.35;104887;1271;61300;-72
2022/07/13 08:44:26;;;;;;;2.20;0.80;;;;;;;24.40;58.24;99137.98;104925;1271;71468;-72
2022/07/13 08:46:52;;;;;;;0.80;0.80;;;;;;;24.46;58.68;99144.09;105191;1271;61246;-72
2022/07/13 08:49:19;;;;;;;1.90;0.80;;;;;;;24.49;56.86;99144.21;105217;1269;61387;-72
2022/07/13 08:51:47;;;;;;;1.30;1.00;;;;;;;24.35;55.40;99142.19;105032;1271;61523;-72
2022/07/13 08:54:14;;;;;;;1.00;0.80;;;;;;;24.25;54.89;99141.75;105190;1268;70401;-72
2022/07/13 08:56:41;;;;;;;1.80;1.20;;;;;;;24.22;55.82;99139.78;104956;1271;61295;-73
2022/07/13 08:59:07;;;;;;;1.80;0.90;;;;;;;24.27;56.64;99143.04;104937;1269;61370;-74
2022/07/13 09:01:33;;;;;;;1.70;0.80;;;;;;;24.36;56.95;99137.17;105243;1269;62527;-72
2022/07/13 09:04:00;;;;;;;1.30;0.80;;;;;;;24.45;57.21;99150.85;105215;1268;61285;-73
2022/07/13 09:06:38;;;;;;;1.50;0.70;;;;;;;24.55;56.39;99147.86;105210;1269;61387;-72
2022/07/13 09:09:05;;;;;;;2.00;1.00;;;;;;;24.53;55.05;99139.67;105258;1268;73551;-72
2022/07/13 09:11:30;;;;;;;0.80;0.60;;;;;;;24.55;56.46;99142.70;105185;1271;61252;-73
2022/07/13 09:13:56;;;;;;;2.00;0.70;;;;;;;24.67;55.33;99140.39;105235;1271;61306;-73
2022/07/13 09:16:25;;;;;;;1.50;0.90;;;;;;;24.76;55.22;99132.48;105144;1271;61298;-74
2022/07/13 09:19:01;;;;;;;1.40;0.90;;;;;;;24.85;55.90;99130.27;105239;1270;69302;-73
2022/07/13 09:21:30;;;;;;;1.10;1.00;;;;;;;25.00;54.66;99123.85;105482;1268;73039;-72
2022/07/13 09:23:57;;;;;;;1.30;0.80;;;;;;;24.99;54.87;99129.20;105272;1268;61290;-73
2022/07/13 09:26:41;;;;;;;2.00;0.90;;;;;;;25.08;54.68;99129.47;105220;1269;61281;-74
2022/07/13 09:29:07;;;;;;;2.00;0.70;;;;;;;25.07;53.57;99119.73;105190;1270;75339;-72
2022/07/13 09:31:57;;;;;;;1.40;0.70;;;;;;;24.97;53.24;99127.80;105228;1271;61300;-73
2022/07/13 09:34:52;;;;;;;2.50;1.00;;;;;;;25.02;53.14;99130.73;105196;1271;73350;-73
2022/07/13 09:37:20;;;;;;;2.70;0.70;;;;;;;25.06;52.05;99139.44;105198;1268;61279;-73
2022/07/13 09:40:12;;;;;;;1.10;0.80;;;;;;;25.17;52.69;99136.80;105186;1271;61338;-73
2022/07/13 09:42:41;;;;;;;1.00;0.90;;;;;;;25.33;51.00;99144.76;105259;1269;75722;-72
2022/07/13 09:47:56;;;;;;;1.20;0.80;;;;;;;25.37;50.41;99139.71;105258;1271;73258;-73
2022/07/13 09:50:38;;;;;;;0.70;0.70;;;;;;;25.38;50.11;99134.39;105304;1270;61312;-72
2022/07/13 09:53:25;;;;;;;2.20;1.00;;;;;;;25.30;50.52;99134.06;105212;1268;61202;-73
2022/07/13 09:55:52;;;;;;;1.70;0.70;;;;;;;25.37;50.32;99133.69;105254;1271;75244;-73
2022/07/13 09:58:28;;;;;;;1.40;1.10;;;;;;;25.46;49.84;99129.98;105301;1269;66419;-74
2022/07/13 10:00:59;;;;;;;0.80;0.70;;;;;;;25.56;50.00;99133.02;105145;1271;74265;-73
2022/07/13 10:03:29;;;;;;;1.50;0.80;;;;;;;25.66;49.84;99127.71;105035;1271;61517;-74
2022/07/13 10:05:56;;;;;;;0.80;0.80;;;;;;;25.80;49.77;99131.55;105272;1268;62375;-74
2022/07/13 10:08:22;;;;;;;2.20;1.10;;;;;;;25.72;47.68;99133.63;105254;1269;76398;-73
2022/07/13 10:10:49;;;;;;;1.00;0.80;;;;;;;25.63;48.31;99128.66;105239;1269;69633;-72
2022/07/13 10:13:17;;;;;;;2.40;1.20;;;;;;;25.80;49.65;99130.63;105347;1269;72708;-73
2022/07/13 10:15:46;;;;;;;4.50;1.40;;;;;;;25.94;47.70;99131.05;105211;1271;61473;-72
2022/07/13 10:18:35;;;;;;;3.00;1.20;;;;;;;25.94;47.45;99131.47;105230;1271;61994;-74
2022/07/13 10:21:10;;;;;;;1.40;1.00;;;;;;;26.03;47.61;99131.48;105269;1268;75668;-72
2022/07/13 10:23:38;;;;;;;2.60;1.10;;;;;;;25.87;47.50;99135.89;105294;1268;69698;-73
2022/07/13 10:26:18;;;;;;;1.40;0.90;;;;;;;25.86;48.46;99141.55;105270;1270;73457;-72
2022/07/13 10:29:10;;;;;;;3.10;1.00;;;;;;;26.10;48.25;99134.27;105279;1271;61310;-72
2022/07/13 10:31:37;;;;;;;1.10;0.80;;;;;;;26.07;47.85;99132.48;105222;1271;62213;-73
2022/07/13 10:34:08;;;;;;;1.00;0.80;;;;;;;25.80;46.94;99135.61;105345;1271;75449;-73
2022/07/13 10:36:55;;;;;;;3.60;0.70;;;;;;;25.57;46.91;99130.45;105087;1271;67629;-73
2022/07/13 10:39:25;;;;;;;2.40;0.90;;;;;;;25.50;47.17;99139.08;105231;1271;73268;-73
2022/07/13 10:42:02;;;;;;;1.40;0.70;;;;;;;25.65;47.15;99130.40;105166;1271;61302;-73
2022/07/13 10:44:39;;;;;;;1.60;0.80;;;;;;;25.87;46.71;99124.73;105277;1271;61275;-73
2022/07/13 10:47:08;;;;;;;2.60;0.70;;;;;;;25.99;46.26;99121.25;105401;1271;75165;-72
2022/07/13 10:49:42;;;;;;;3.20;0.70;;;;;;;25.93;45.58;99134.56;105002;1271;69532;-71
2022/07/13 10:52:22;;;;;;;1.40;0.70;;;;;;;25.69;45.51;99133.12;105346;1269;74770;-72
2022/07/13 10:55:07;;;;;;;0.70;0.70;;;;;;;25.54;46.29;99135.08;105240;1268;61309;-73
2022/07/13 10:57:37;;;;;;;0.80;0.70;;;;;;;25.76;46.08;99140.08;105629;1271;61375;-74
2022/07/13 11:00:19;;;;;;;3.70;0.80;;;;;;;25.98;46.07;99133.84;105966;1271;76417;-73
2022/07/13 11:02:54;;;;;;;1.40;0.90;;;;;;;26.20;45.63;99130.77;105840;1271;69559;-72
2022/07/13 11:05:29;;;;;;;1.60;0.80;;;;;;;26.12;44.95;99130.25;105421;1269;73204;-73
2022/07/13 11:07:55;;;;;;;2.40;1.00;;;;;;;26.21;46.19;99127.11;105269;1268;61244;-73
2022/07/13 11:10:22;;;;;;;0.80;0.80;;;;;;;26.36;45.17;99137.05;105316;1268;61286;-72
2022/07/13 11:13:02;;;;;;;1.90;0.80;;;;;;;26.35;43.93;99124.39;105275;1268;75322;-72
2022/07/13 11:15:48;;;;;;;0.80;0.50;;;;;;;26.46;44.81;99126.68;105283;1271;70302;-73
2022/07/13 11:18:22;;;;;;;0.80;0.70;;;;;;;26.53;44.13;99131.23;105283;1268;72436;-73
2022/07/13 11:21:02;;;;;;;1.90;1.20;;;;;;;26.59;45.08;99127.14;105200;1268;61359;-72
2022/07/13 11:26:46;;;;;;;1.90;1.10;;;;;;;26.87;44.06;99107.20;105235;1268;75393;-73
2022/07/13 11:29:45;;;;;;;1.10;1.00;;;;;;;27.13;43.24;99115.02;105231;1268;69366;-73
2022/07/13 11:32:12;;;;;;;2.60;1.10;;;;;;;27.08;42.79;99110.21;105194;1268;74454;-72
2022/07/13 11:34:41;;;;;;;1.30;0.90;;;;;;;27.08;41.29;99102.38;105218;1270;61266;-72
2022/07/13 11:37:08;;;;;;;2.00;0.80;;;;;;;27.05;41.77;99097.86;105217;1271;61991;-72
2022/07/13 11:39:35;;;;;;;1.10;1.00;;;;;;;27.20;42.91;99100.06;105281;1271;75152;-74
2022/07/13 11:42:09;;;;;;;2.90;1.20;;;;;;;27.27;43.04;99101.06;105215;1269;69446;-73
2022/07/13 11:44:36;;;;;;;2.30;1.00;;;;;;;27.33;42.28;99104.05;105223;1271;74482;-72